Tara — XUAB3 — position and weather

sailwx.info

Track history (hours):
 
Tides and Currents Weather Stations Pressure Air Temp Water Temp Dewpoint Dewpoint Depression Visibility Wind Speed Wind Dir Waves Ship Positions

Tara

Last reported at 2014-Aug-30 16:30 UTC. Time now 2014-Sep-03 04:43 UTC.
Position N 40°46' E 028°52'.

Length 82 m; draft 3.9 m.

Type: Ship. MMSI: 515410000.

Date/timePositionNaut miles runAvg speedWind from/ knotsBaromVisibWave heightAir tempDewpointWater temp
2014-Aug-30 16:30N 40°46' E 028°52'1111.3
2014-Aug-30 15:33N 40°48' E 029°06'8 8.2
2014-Aug-30 14:33N 40°51' E 029°16'0 0.0
2014-Aug-30 13:33N 40°51' E 029°16'0 0.0
2014-Aug-30 11:21N 40°51' E 029°16'0 0.0
2014-Aug-30 10:33N 40°51' E 029°16'0 0.0
2014-Aug-30 09:28N 40°51' E 029°16'0 0.0
2014-Aug-29 05:28N 40°51' E 029°16'1 0.6
2014-Aug-29 04:33N 40°51' E 029°16'1 1.2
2014-Aug-29 03:30N 40°51' E 029°14'0 0.0
2014-Aug-29 02:19N 40°51' E 029°14'0 0.0
2014-Aug-29 01:31N 40°51' E 029°14'0 0.0
2014-Aug-29 00:32N 40°50' E 029°14'0 0.0
2014-Aug-28 23:27N 40°50' E 029°14'3 3.4
2014-Aug-28 22:28N 40°49' E 029°10'7 7.6
2014-Aug-28 21:33N 40°48' E 029°01'8 7.7
2014-Aug-28 20:30N 40°47' E 028°50'138 7.7
2014-Aug-28 02:30N 39°59' E 026°00'5 5.5
2014-Aug-28 01:33N 39°55' E 025°55'6 5.5
2014-Aug-28 00:33N 39°52' E 025°49'17 8.5
2014-Aug-27 22:30N 39°41' E 025°32'  
2014-Aug-23 03:33N 37°03' E 023°49'2010.0
2014-Aug-23 01:32N 36°47' E 023°34'1010.5
2014-Aug-23 00:33N 36°39' E 023°27'  
Track history (hours):
 
Tides and Currents Weather Stations Pressure Air Temp Water Temp Dewpoint Dewpoint Depression Visibility Wind Speed Wind Dir Waves Ship Positions

Tara

Last reported at 2014-Aug-30 16:30 UTC. Time now 2014-Sep-03 04:43 UTC.
Position N 40°46' E 028°52'.

Length 82 m; draft 3.9 m.

Type: Ship. MMSI: 515410000.

Date/timePositionNaut miles runAvg speedWind from/ knotsBaromVisibWave heightAir tempDewpointWater temp
2014-Aug-30 16:30N 40°46' E 028°52'1111.3
2014-Aug-30 15:33N 40°48' E 029°06'8 8.2
2014-Aug-30 14:33N 40°51' E 029°16'0 0.0
2014-Aug-30 13:33N 40°51' E 029°16'0 0.0
2014-Aug-30 11:21N 40°51' E 029°16'0 0.0
2014-Aug-30 10:33N 40°51' E 029°16'0 0.0
2014-Aug-30 09:28N 40°51' E 029°16'0 0.0
2014-Aug-29 05:28N 40°51' E 029°16'1 0.6
2014-Aug-29 04:33N 40°51' E 029°16'1 1.2
2014-Aug-29 03:30N 40°51' E 029°14'0 0.0
2014-Aug-29 02:19N 40°51' E 029°14'0 0.0
2014-Aug-29 01:31N 40°51' E 029°14'0 0.0
2014-Aug-29 00:32N 40°50' E 029°14'0 0.0
2014-Aug-28 23:27N 40°50' E 029°14'3 3.4
2014-Aug-28 22:28N 40°49' E 029°10'7 7.6
2014-Aug-28 21:33N 40°48' E 029°01'8 7.7
2014-Aug-28 20:30N 40°47' E 028°50'138 7.7
2014-Aug-28 02:30N 39°59' E 026°00'5 5.5
2014-Aug-28 01:33N 39°55' E 025°55'6 5.5
2014-Aug-28 00:33N 39°52' E 025°49'17 8.5
2014-Aug-27 22:30N 39°41' E 025°32'  
2014-Aug-23 03:33N 37°03' E 023°49'2010.0
2014-Aug-23 01:32N 36°47' E 023°34'1010.5
2014-Aug-23 00:33N 36°39' E 023°27'  

Dump ship's entire track history